createdAt,value
2022-08-03T13:05:54.378Z,0.70
2022-08-03T13:08:23.899Z,0.88
2022-08-03T13:10:51.576Z,1.10
2022-08-03T13:13:20.905Z,0.90
2022-08-03T13:15:56.964Z,0.80
2022-08-03T13:18:27.226Z,0.77
2022-08-03T13:20:54.343Z,0.70
2022-08-03T13:23:35.065Z,0.82
2022-08-03T13:26:09.575Z,0.95
2022-08-03T13:28:45.751Z,0.93
2022-08-03T13:31:13.798Z,0.70
2022-08-03T13:33:41.404Z,0.60
2022-08-03T13:38:42.697Z,0.90
2022-08-03T13:41:54.905Z,0.93
2022-08-03T13:44:30.941Z,0.63
2022-08-03T13:46:59.694Z,0.70
2022-08-03T13:49:30.877Z,0.80
2022-08-03T13:52:01.810Z,0.70
2022-08-03T13:58:06.292Z,1.08
2022-08-03T13:59:59.336Z,0.70
2022-08-03T14:02:26.881Z,1.00
2022-08-03T14:04:54.970Z,0.57
2022-08-03T14:07:22.035Z,0.73
2022-08-03T14:10:01.072Z,0.95
2022-08-03T14:12:28.828Z,0.80
2022-08-03T14:14:59.590Z,0.60
2022-08-03T14:17:40.748Z,0.60
2022-08-03T14:20:38.761Z,0.90
2022-08-03T14:25:43.578Z,0.82
2022-08-03T14:28:23.078Z,0.40
2022-08-03T14:30:52.095Z,0.98
2022-08-03T14:33:26.552Z,0.73
2022-08-03T14:35:53.653Z,0.85
2022-08-03T14:38:22.070Z,0.80
2022-08-03T14:40:50.854Z,0.90
2022-08-03T14:43:19.331Z,0.77
2022-08-03T14:45:46.552Z,0.70
2022-08-03T14:50:34.711Z,0.80
2022-08-03T14:51:01.235Z,0.90
2022-08-03T14:53:29.082Z,0.70
2022-08-03T14:55:56.276Z,0.80
2022-08-03T14:58:27.714Z,0.60
2022-08-03T15:00:56.084Z,0.70
2022-08-03T15:03:25.081Z,0.60
2022-08-03T15:05:57.139Z,1.02
2022-08-03T15:08:25.804Z,0.80
2022-08-03T15:10:54.540Z,0.70
2022-08-03T15:13:22.320Z,0.60
2022-08-03T15:15:50.157Z,1.20
2022-08-03T15:18:17.178Z,0.80
2022-08-03T15:20:46.278Z,0.90
2022-08-03T15:23:15.623Z,0.60
2022-08-03T15:26:28.360Z,0.60
2022-08-03T15:28:32.478Z,0.75
2022-08-03T15:31:00.001Z,0.50
2022-08-03T15:33:27.099Z,0.80
2022-08-03T15:35:54.763Z,0.68
2022-08-03T15:38:26.232Z,0.50
2022-08-03T15:40:54.795Z,0.50
2022-08-03T15:43:25.188Z,0.70
2022-08-03T15:46:12.787Z,0.73
2022-08-03T15:48:39.669Z,0.73
2022-08-03T15:51:09.209Z,0.70
2022-08-03T15:53:36.825Z,0.98
2022-08-03T15:56:10.009Z,0.60
2022-08-03T15:59:03.385Z,0.80
2022-08-03T16:01:27.102Z,0.50
2022-08-03T16:08:03.179Z,0.70
2022-08-03T16:10:30.795Z,0.80
2022-08-03T16:12:59.085Z,0.63
2022-08-03T16:15:28.299Z,0.57
2022-08-03T16:17:55.533Z,0.50
2022-08-03T16:20:34.190Z,0.47
2022-08-03T16:23:07.016Z,0.88
2022-08-03T16:25:40.350Z,0.70
2022-08-03T16:28:13.597Z,0.93
2022-08-03T16:30:43.151Z,1.02
2022-08-03T16:33:11.389Z,0.90
2022-08-03T16:35:44.253Z,0.55
2022-08-03T16:38:15.214Z,0.90
2022-08-03T16:40:47.156Z,1.38
2022-08-03T16:43:18.194Z,0.82
2022-08-03T16:45:47.120Z,0.52
2022-08-03T16:48:15.480Z,1.05
2022-08-03T16:50:42.567Z,0.68
2022-08-03T16:53:15.528Z,0.75
2022-08-03T16:55:53.200Z,0.60
2022-08-03T16:58:24.381Z,0.80
2022-08-03T17:01:21.542Z,0.80
2022-08-03T17:04:01.698Z,0.80
2022-08-03T17:06:34.456Z,0.63
2022-08-03T17:09:03.205Z,0.90
2022-08-03T17:11:32.122Z,0.73
2022-08-03T17:14:03.516Z,0.80
2022-08-03T17:16:33.549Z,0.70
2022-08-03T17:19:07.659Z,0.60
2022-08-03T17:21:39.053Z,0.68
2022-08-03T17:24:19.660Z,0.80
2022-08-03T17:26:51.129Z,0.70
2022-08-03T17:29:23.097Z,0.65
2022-08-03T17:31:53.090Z,1.08
2022-08-03T17:34:21.775Z,0.80
2022-08-03T17:37:27.191Z,1.10
2022-08-03T17:39:59.914Z,0.90
2022-08-03T17:45:02.585Z,1.13
2022-08-03T17:51:21.271Z,1.30
2022-08-03T17:54:18.377Z,1.02
2022-08-03T17:57:22.484Z,1.10
2022-08-03T18:00:28.706Z,0.90
2022-08-03T18:03:18.674Z,1.60
2022-08-03T18:06:11.822Z,0.93
2022-08-03T18:08:55.271Z,1.17
2022-08-03T18:11:24.127Z,1.88
2022-08-03T18:14:15.957Z,1.02
2022-08-03T18:17:00.707Z,1.25
2022-08-03T18:20:01.896Z,1.30
2022-08-03T18:22:24.996Z,1.42
2022-08-03T18:24:53.026Z,1.02
2022-08-03T18:27:23.126Z,0.88
2022-08-03T18:29:51.448Z,1.55
2022-08-03T18:32:19.031Z,1.13
2022-08-03T18:34:53.800Z,1.10
2022-08-03T18:40:13.437Z,1.55
2022-08-03T18:42:52.890Z,1.10
2022-08-03T18:48:21.274Z,1.00
2022-08-03T18:51:02.448Z,1.23
2022-08-03T18:56:21.158Z,1.00
2022-08-03T18:59:02.827Z,0.73
2022-08-03T19:02:01.044Z,1.10
2022-08-03T19:08:17.071Z,0.90
2022-08-03T19:10:57.554Z,1.10
2022-08-03T19:13:35.952Z,1.05
2022-08-03T19:16:04.521Z,2.70
2022-08-03T19:18:39.087Z,3.13
2022-08-03T19:21:12.594Z,2.50
2022-08-03T19:23:45.932Z,2.17
2022-08-03T19:26:30.244Z,1.98
2022-08-03T19:28:59.503Z,1.35
2022-08-03T19:31:30.793Z,1.35
2022-08-03T19:34:00.639Z,1.90
2022-08-03T19:36:31.684Z,1.75
2022-08-03T19:38:59.320Z,2.47
2022-08-03T19:41:41.722Z,1.80
2022-08-03T19:44:12.445Z,2.05
2022-08-03T19:46:54.560Z,1.80
2022-08-03T19:49:57.749Z,1.23
2022-08-03T19:52:16.039Z,1.30
2022-08-03T19:54:53.861Z,1.05
2022-08-03T19:57:24.474Z,1.20
2022-08-03T19:59:53.414Z,0.90
2022-08-03T20:02:27.268Z,0.88
2022-08-03T20:04:59.975Z,1.10
2022-08-03T20:07:31.014Z,1.10
2022-08-03T20:10:01.409Z,1.17
2022-08-03T20:12:32.139Z,1.20
2022-08-03T20:15:04.467Z,1.02
2022-08-03T20:17:55.584Z,1.10
2022-08-03T20:20:23.551Z,0.90
2022-08-03T20:22:57.684Z,1.10
2022-08-03T20:25:38.681Z,0.70
2022-08-03T20:28:17.166Z,1.30
2022-08-03T20:30:46.316Z,1.25
2022-08-03T20:33:18.340Z,1.00
2022-08-03T20:35:48.988Z,1.38
2022-08-03T20:38:18.457Z,1.05
2022-08-03T20:40:47.801Z,1.08
2022-08-03T20:43:16.271Z,1.00
2022-08-03T20:46:00.267Z,1.63
2022-08-03T20:48:31.354Z,0.88
2022-08-03T20:50:58.843Z,1.30
2022-08-03T20:56:15.049Z,1.35
2022-08-03T20:58:43.166Z,0.75
2022-08-03T21:01:18.230Z,0.80
2022-08-03T21:03:55.617Z,0.60
2022-08-03T21:06:53.415Z,1.13
2022-08-03T21:09:40.116Z,1.08
2022-08-03T21:12:15.486Z,1.27
2022-08-03T21:12:58.651Z,1.10
2022-08-03T21:13:04.991Z,1.13
2022-08-03T21:13:08.414Z,1.45
2022-08-03T21:13:12.190Z,1.40
2022-08-03T21:14:57.297Z,1.10
2022-08-03T21:23:39.854Z,1.08
2022-08-03T21:28:45.757Z,1.00
2022-08-03T21:31:14.217Z,1.33
2022-08-03T21:33:47.454Z,1.08
2022-08-03T21:36:15.319Z,1.20
2022-08-03T21:38:43.905Z,1.27
2022-08-03T21:41:14.768Z,1.02
2022-08-03T21:43:41.958Z,1.13
2022-08-03T21:46:12.308Z,1.52
2022-08-03T21:48:41.736Z,0.93
2022-08-03T21:51:12.306Z,1.33
2022-08-03T21:54:03.173Z,1.25
2022-08-03T21:56:29.763Z,1.20
2022-08-03T21:59:02.834Z,1.52
2022-08-03T22:01:35.342Z,1.10
2022-08-03T22:04:07.175Z,1.33
2022-08-03T22:06:36.705Z,1.45
2022-08-03T22:09:06.448Z,1.48
2022-08-03T22:11:36.574Z,1.13
2022-08-03T22:14:03.843Z,0.95
2022-08-03T22:16:31.530Z,1.40
2022-08-03T22:18:58.565Z,1.75
2022-08-03T22:27:41.337Z,1.33
2022-08-03T22:30:17.247Z,1.35
2022-08-03T22:32:45.326Z,0.95
2022-08-03T22:35:14.430Z,1.42
2022-08-03T22:37:42.093Z,1.80
2022-08-03T22:40:12.517Z,1.30
2022-08-03T22:42:47.131Z,1.13
2022-08-03T22:45:45.831Z,1.30
2022-08-03T22:48:02.101Z,1.50
2022-08-03T22:50:31.691Z,1.63
2022-08-03T22:53:00.132Z,1.20
2022-08-03T22:55:27.818Z,1.30
2022-08-03T22:57:56.074Z,1.08
2022-08-03T23:00:24.842Z,1.02
2022-08-03T23:02:54.011Z,1.02
2022-08-03T23:06:02.233Z,1.25
2022-08-03T23:08:15.855Z,1.10
2022-08-03T23:10:47.330Z,1.35
2022-08-03T23:13:17.703Z,1.10
2022-08-03T23:15:58.239Z,1.10
2022-08-03T23:18:32.015Z,1.42
2022-08-03T23:21:05.960Z,1.33
2022-08-03T23:23:44.155Z,1.10
2022-08-03T23:26:17.273Z,1.20
2022-08-03T23:28:47.713Z,1.23
2022-08-03T23:31:15.755Z,1.13
2022-08-03T23:33:45.507Z,1.08
2022-08-03T23:36:30.904Z,1.15
2022-08-03T23:39:02.262Z,1.60
2022-08-03T23:41:31.119Z,1.17
2022-08-03T23:44:01.004Z,1.45
2022-08-03T23:46:30.559Z,1.60
2022-08-03T23:48:58.734Z,1.08
2022-08-03T23:51:48.138Z,1.38
2022-08-03T23:54:27.569Z,1.48
2022-08-03T23:57:11.728Z,1.25
2022-08-03T23:59:44.442Z,1.30
